createdAt,value
2023-06-13T00:00:50.139Z,13.94
2023-06-13T00:03:21.322Z,13.92
2023-06-13T00:05:50.441Z,13.90
2023-06-13T00:08:23.039Z,13.89
2023-06-13T00:10:51.162Z,13.92
2023-06-13T00:13:20.412Z,13.97
2023-06-13T00:15:53.062Z,13.93
2023-06-13T00:18:21.080Z,13.90
2023-06-13T00:20:49.024Z,13.86
2023-06-13T00:23:17.609Z,13.84
2023-06-13T00:25:45.365Z,13.85
2023-06-13T00:28:13.307Z,13.86
2023-06-13T00:30:41.303Z,13.84
2023-06-13T00:33:10.830Z,13.81
2023-06-13T00:35:38.574Z,13.79
2023-06-13T00:38:08.583Z,13.78
2023-06-13T00:40:37.268Z,13.80
2023-06-13T00:43:06.283Z,13.80
2023-06-13T00:45:38.994Z,13.77
2023-06-13T00:48:08.171Z,13.75
2023-06-13T00:50:38.285Z,13.74
2023-06-13T00:53:11.115Z,13.76
2023-06-13T00:55:39.849Z,13.77
2023-06-13T00:58:08.986Z,13.77
2023-06-13T01:00:36.928Z,13.73
2023-06-13T01:03:11.161Z,13.71
2023-06-13T01:05:40.126Z,13.72
2023-06-13T01:08:11.070Z,13.72
2023-06-13T01:10:41.617Z,13.71
2023-06-13T01:13:29.269Z,13.69
2023-06-13T01:16:07.773Z,13.68
2023-06-13T01:18:36.601Z,13.69
2023-06-13T01:21:06.240Z,13.70
2023-06-13T01:23:45.121Z,13.71
2023-06-13T01:26:24.300Z,13.69
2023-06-13T01:28:53.478Z,13.67
2023-06-13T01:31:23.073Z,13.62
2023-06-13T01:33:51.868Z,13.62
2023-06-13T01:36:21.176Z,13.63
2023-06-13T01:38:48.942Z,13.65
2023-06-13T01:41:16.729Z,13.64
2023-06-13T01:43:44.681Z,13.60
2023-06-13T01:46:31.551Z,13.58
2023-06-13T01:49:23.402Z,13.58
2023-06-13T01:52:14.023Z,13.59
2023-06-13T01:54:46.946Z,13.58
2023-06-13T01:57:17.145Z,13.57
2023-06-13T01:59:45.461Z,13.58
2023-06-13T02:02:13.223Z,13.60
2023-06-13T02:04:42.028Z,13.65
2023-06-13T02:07:10.204Z,13.66
2023-06-13T02:09:39.017Z,13.64
2023-06-13T02:12:08.087Z,13.62
2023-06-13T02:14:38.122Z,13.62
2023-06-13T02:17:07.958Z,13.66
2023-06-13T02:19:36.493Z,13.67
2023-06-13T02:22:05.058Z,13.65
2023-06-13T02:24:33.899Z,13.64
2023-06-13T02:27:01.836Z,13.59
2023-06-13T02:29:29.868Z,13.60
2023-06-13T02:31:58.283Z,13.62
2023-06-13T02:34:26.437Z,13.62
2023-06-13T02:36:54.344Z,13.60
2023-06-13T02:39:22.019Z,13.60
2023-06-13T02:44:42.476Z,13.68
2023-06-13T02:47:11.254Z,13.72
2023-06-13T02:49:38.914Z,13.74
2023-06-13T02:52:07.622Z,13.73
2023-06-13T02:54:36.354Z,13.72
2023-06-13T02:57:05.028Z,13.70
2023-06-13T02:59:33.664Z,13.70
2023-06-13T03:02:01.512Z,13.71
2023-06-13T03:04:29.784Z,13.69
2023-06-13T03:06:59.998Z,13.69
2023-06-13T03:09:29.119Z,13.68
2023-06-13T03:11:57.677Z,13.67
2023-06-13T03:14:26.474Z,13.68
2023-06-13T03:16:58.861Z,13.72
2023-06-13T03:19:28.316Z,13.76
2023-06-13T03:21:56.281Z,13.77
2023-06-13T03:24:24.426Z,13.77
2023-06-13T03:26:52.487Z,13.79
2023-06-13T03:29:20.757Z,13.82
2023-06-13T03:31:51.286Z,13.89
2023-06-13T03:34:19.363Z,13.94
2023-06-13T03:36:47.735Z,13.99
2023-06-13T03:39:17.457Z,14.02
2023-06-13T03:41:46.464Z,14.04
2023-06-13T03:44:14.613Z,14.10
2023-06-13T03:46:43.036Z,14.17
2023-06-13T03:49:13.580Z,14.28
2023-06-13T03:51:43.142Z,14.36
2023-06-13T03:54:11.509Z,14.40
2023-06-13T03:56:40.780Z,14.46
2023-06-13T03:59:10.330Z,14.52
2023-06-13T04:01:40.987Z,14.59
2023-06-13T04:04:12.374Z,14.69
2023-06-13T04:06:49.844Z,14.83
2023-06-13T04:09:19.023Z,14.91
2023-06-13T04:11:49.249Z,14.93
2023-06-13T04:14:17.054Z,14.97
2023-06-13T04:16:47.167Z,15.01
2023-06-13T04:19:19.744Z,15.01
2023-06-13T04:21:48.706Z,15.01
2023-06-13T04:24:16.523Z,15.04
2023-06-13T04:26:48.636Z,15.14
2023-06-13T04:29:18.962Z,15.26
2023-06-13T04:31:47.939Z,15.39
2023-06-13T04:34:16.282Z,15.54
2023-06-13T04:36:45.724Z,15.67
2023-06-13T04:39:13.908Z,15.80
2023-06-13T04:41:44.974Z,15.95
2023-06-13T04:44:14.829Z,15.97
2023-06-13T04:46:44.906Z,15.96
2023-06-13T04:49:13.461Z,15.97
2023-06-13T04:51:43.493Z,16.00
2023-06-13T04:54:17.392Z,16.06
2023-06-13T04:56:45.258Z,16.19
2023-06-13T04:59:13.849Z,16.35
2023-06-13T05:01:41.838Z,16.39
2023-06-13T05:04:10.275Z,16.28
2023-06-13T05:06:42.157Z,16.18
2023-06-13T05:09:10.308Z,16.26
2023-06-13T05:11:39.337Z,16.40
2023-06-13T05:14:07.809Z,16.53
2023-06-13T05:16:36.158Z,16.58
2023-06-13T05:19:06.925Z,16.65
2023-06-13T05:21:36.224Z,16.74
2023-06-13T05:24:05.127Z,16.84
2023-06-13T05:26:35.358Z,16.89
2023-06-13T05:29:06.033Z,16.87
2023-06-13T05:31:35.391Z,16.82
2023-06-13T05:34:06.751Z,16.75
2023-06-13T05:36:34.634Z,16.69
2023-06-13T05:39:03.072Z,16.66
2023-06-13T05:41:32.082Z,16.61
2023-06-13T05:44:00.050Z,16.61
2023-06-13T05:46:28.003Z,16.67
2023-06-13T05:48:59.122Z,16.75
2023-06-13T05:51:27.798Z,16.80
2023-06-13T05:53:57.285Z,16.78
2023-06-13T05:56:26.279Z,16.75
2023-06-13T05:58:54.451Z,16.77
2023-06-13T06:01:27.041Z,16.88
2023-06-13T06:03:58.174Z,17.05
2023-06-13T06:06:32.183Z,17.28
2023-06-13T06:09:00.358Z,17.54
2023-06-13T06:11:28.634Z,17.77
2023-06-13T06:13:58.400Z,18.01
2023-06-13T06:16:27.132Z,18.18
2023-06-13T06:18:55.856Z,18.31
2023-06-13T06:21:24.212Z,18.35
2023-06-13T06:23:52.076Z,18.44
2023-06-13T06:26:19.933Z,18.54
2023-06-13T06:28:55.997Z,18.55
2023-06-13T06:31:23.802Z,18.51
2023-06-13T06:33:51.838Z,18.60
2023-06-13T06:36:24.164Z,18.75
2023-06-13T06:38:52.593Z,18.80
2023-06-13T06:41:20.861Z,18.67
2023-06-13T06:43:48.895Z,18.64
2023-06-13T06:46:17.874Z,18.82
2023-06-13T06:48:45.793Z,18.99
2023-06-13T06:51:13.581Z,19.11
2023-06-13T06:53:42.244Z,19.12
2023-06-13T06:56:10.015Z,19.05
2023-06-13T06:58:38.092Z,19.03
2023-06-13T07:01:05.958Z,19.04
2023-06-13T07:03:39.672Z,18.96
2023-06-13T07:06:08.035Z,18.96
2023-06-13T07:08:35.900Z,19.05
2023-06-13T07:11:04.461Z,19.17
2023-06-13T07:13:37.377Z,19.24
2023-06-13T07:16:06.158Z,19.19
2023-06-13T07:18:34.232Z,19.15
2023-06-13T07:21:02.098Z,19.19
2023-06-13T07:23:29.967Z,19.17
2023-06-13T07:25:58.242Z,19.20
2023-06-13T07:28:28.600Z,19.24
2023-06-13T07:34:01.985Z,19.25
2023-06-13T07:36:30.061Z,19.31
2023-06-13T07:38:59.819Z,19.52
2023-06-13T07:41:35.936Z,19.73
2023-06-13T07:44:04.924Z,19.84
2023-06-13T07:46:33.326Z,19.98
2023-06-13T07:49:01.725Z,20.08
2023-06-13T07:51:31.085Z,20.17
2023-06-13T07:53:58.850Z,20.33
2023-06-13T07:56:26.822Z,20.53
2023-06-13T07:58:55.343Z,20.66
2023-06-13T08:01:23.791Z,20.74
2023-06-13T08:03:51.891Z,20.75
2023-06-13T08:09:14.403Z,20.68
2023-06-13T08:11:42.668Z,20.61
2023-06-13T08:14:13.534Z,20.64
2023-06-13T08:16:42.014Z,20.74
2023-06-13T08:19:08.961Z,20.83
2023-06-13T08:21:35.901Z,20.84
2023-06-13T08:24:03.512Z,20.90
2023-06-13T08:26:36.460Z,20.85
2023-06-13T08:29:03.620Z,20.84
2023-06-13T08:31:48.590Z,20.85
2023-06-13T08:34:17.600Z,20.84
2023-06-13T08:36:46.046Z,20.76
2023-06-13T08:39:13.826Z,20.77
2023-06-13T08:41:40.949Z,20.73
2023-06-13T08:44:09.027Z,20.69
2023-06-13T08:46:37.073Z,20.65
2023-06-13T08:49:04.677Z,20.58
2023-06-13T08:51:31.974Z,20.57
2023-06-13T08:54:06.216Z,20.60
2023-06-13T08:56:44.903Z,20.75
2023-06-13T08:59:19.265Z,20.95
2023-06-13T09:01:48.784Z,21.05
2023-06-13T09:04:17.030Z,21.12
2023-06-13T09:06:46.012Z,21.09
2023-06-13T09:09:13.604Z,21.02
2023-06-13T09:11:41.569Z,20.91
2023-06-13T09:14:09.873Z,20.86
2023-06-13T09:16:38.094Z,20.77
2023-06-13T09:19:05.358Z,20.56
2023-06-13T09:21:34.697Z,20.44
2023-06-13T09:24:02.198Z,20.31
2023-06-13T09:26:29.807Z,20.24
2023-06-13T09:28:57.675Z,20.21
2023-06-13T09:31:35.813Z,20.17
2023-06-13T09:34:08.463Z,20.06
2023-06-13T09:36:38.700Z,20.09
2023-06-13T09:39:05.986Z,20.13
2023-06-13T09:41:34.158Z,20.19
2023-06-13T09:44:05.357Z,20.25
2023-06-13T09:46:38.221Z,20.27
2023-06-13T09:49:07.010Z,20.29
2023-06-13T09:51:34.154Z,20.34
2023-06-13T09:54:01.776Z,20.37
2023-06-13T09:56:29.692Z,20.35
2023-06-13T09:58:57.223Z,20.30
2023-06-13T10:01:26.390Z,20.21
2023-06-13T10:03:57.194Z,20.02
2023-06-13T10:06:27.209Z,19.84
2023-06-13T10:08:57.867Z,19.76
2023-06-13T10:11:28.411Z,19.80
2023-06-13T10:14:11.456Z,19.88
2023-06-13T10:17:07.578Z,19.94
2023-06-13T10:19:40.017Z,19.91
2023-06-13T10:22:07.208Z,19.81
2023-06-13T10:24:35.840Z,19.78
2023-06-13T10:27:03.124Z,19.78
2023-06-13T10:29:48.428Z,19.82
2023-06-13T10:33:00.874Z,19.98
2023-06-13T10:35:54.361Z,20.30
2023-06-13T10:38:44.684Z,20.62
2023-06-13T10:41:30.676Z,20.87
2023-06-13T10:44:21.036Z,20.91
2023-06-13T10:46:48.596Z,20.88
2023-06-13T10:49:19.049Z,20.86
2023-06-13T10:51:46.387Z,20.89
2023-06-13T10:54:15.522Z,20.98
2023-06-13T10:56:44.507Z,21.12
2023-06-13T10:59:16.289Z,21.16
2023-06-13T11:01:44.003Z,21.11
2023-06-13T11:04:14.868Z,20.99
2023-06-13T11:06:44.002Z,20.91
2023-06-13T11:09:29.903Z,20.76
2023-06-13T11:11:58.315Z,20.47
2023-06-13T11:14:31.936Z,20.19
2023-06-13T11:16:59.708Z,20.01
2023-06-13T11:19:29.356Z,19.96
2023-06-13T11:22:00.457Z,19.94
2023-06-13T11:24:28.775Z,19.95
2023-06-13T11:26:56.980Z,19.94
2023-06-13T11:29:24.269Z,19.92
2023-06-13T11:31:52.649Z,19.85
2023-06-13T11:34:23.544Z,19.74
2023-06-13T11:36:52.027Z,19.64
2023-06-13T11:39:34.430Z,19.57
2023-06-13T11:42:09.400Z,19.51
2023-06-13T11:44:36.518Z,19.53
2023-06-13T11:47:04.358Z,19.57
2023-06-13T11:49:33.163Z,19.59
2023-06-13T11:52:00.462Z,19.63
2023-06-13T11:54:33.718Z,19.64
2023-06-13T11:57:00.767Z,19.68
2023-06-13T11:59:32.041Z,19.79
2023-06-13T12:02:02.011Z,19.83
2023-06-13T12:04:29.549Z,19.91
2023-06-13T12:07:06.204Z,20.01
2023-06-13T12:09:34.849Z,20.03
2023-06-13T12:12:02.364Z,20.08
2023-06-13T12:14:31.299Z,20.21
2023-06-13T12:17:00.091Z,20.29
2023-06-13T12:19:27.304Z,20.34
2023-06-13T12:22:01.824Z,20.38
2023-06-13T12:24:29.505Z,20.54
2023-06-13T12:26:56.908Z,20.62
2023-06-13T12:29:25.779Z,20.66
2023-06-13T12:32:00.400Z,20.62
2023-06-13T12:34:29.797Z,20.59
2023-06-13T12:37:04.686Z,20.65
2023-06-13T12:39:32.592Z,20.71
2023-06-13T12:42:04.861Z,20.72
2023-06-13T12:44:38.377Z,20.73
2023-06-13T12:47:06.801Z,20.77
2023-06-13T12:49:38.755Z,20.70
2023-06-13T12:52:16.212Z,20.61
2023-06-13T12:54:43.665Z,20.54
2023-06-13T12:57:12.421Z,20.47
2023-06-13T12:59:44.051Z,20.42
2023-06-13T13:02:16.240Z,20.32
2023-06-13T13:04:44.388Z,20.25
2023-06-13T13:07:32.164Z,20.15
2023-06-13T13:10:00.756Z,20.13
2023-06-13T13:12:28.625Z,20.10
2023-06-13T13:14:56.036Z,20.05
2023-06-13T13:17:23.441Z,20.03
2023-06-13T13:19:53.771Z,19.98
2023-06-13T13:22:21.632Z,19.89
2023-06-13T13:24:48.887Z,19.81
2023-06-13T13:27:16.556Z,19.72
2023-06-13T13:29:43.810Z,19.62
2023-06-13T13:32:11.383Z,19.57
2023-06-13T13:34:38.789Z,19.52
2023-06-13T13:37:07.111Z,19.45
2023-06-13T13:39:34.925Z,19.41
2023-06-13T13:42:04.971Z,19.40
2023-06-13T13:44:38.383Z,19.37
2023-06-13T13:47:06.348Z,19.29
2023-06-13T13:49:35.188Z,19.24
2023-06-13T13:52:04.395Z,19.21
2023-06-13T13:54:31.925Z,19.16
2023-06-13T13:57:00.737Z,19.11
2023-06-13T13:59:28.265Z,19.03
2023-06-13T14:01:55.785Z,18.91
2023-06-13T14:04:23.027Z,18.79
2023-06-13T14:06:52.772Z,18.71
2023-06-13T14:09:21.155Z,18.67
2023-06-13T14:11:48.957Z,18.63
2023-06-13T14:14:19.343Z,18.56
2023-06-13T14:16:47.168Z,18.48
2023-06-13T14:19:14.437Z,18.43
2023-06-13T14:21:43.139Z,18.39
2023-06-13T14:24:11.988Z,18.32
2023-06-13T14:26:40.419Z,18.24
2023-06-13T14:29:08.693Z,18.20
2023-06-13T14:31:35.979Z,18.14
2023-06-13T14:34:03.706Z,18.11
2023-06-13T14:36:31.272Z,18.06
2023-06-13T14:39:00.306Z,18.02
2023-06-13T14:41:28.668Z,17.96
2023-06-13T14:43:57.167Z,17.96
2023-06-13T14:46:24.653Z,17.96
2023-06-13T14:48:54.299Z,17.96
2023-06-13T14:51:23.703Z,17.98
2023-06-13T14:53:50.944Z,18.00
2023-06-13T14:56:17.889Z,17.99
2023-06-13T14:58:47.705Z,17.93
2023-06-13T15:01:15.533Z,17.90
2023-06-13T15:03:46.640Z,17.83
2023-06-13T15:06:14.874Z,17.76
2023-06-13T15:08:41.835Z,17.66
2023-06-13T15:11:10.222Z,17.58
2023-06-13T15:13:39.411Z,17.53
2023-06-13T15:16:08.149Z,17.54
2023-06-13T15:18:37.120Z,17.54
2023-06-13T15:21:05.782Z,17.58
2023-06-13T15:23:33.237Z,17.60
2023-06-13T15:26:10.795Z,17.61
2023-06-13T15:28:38.949Z,17.60
2023-06-13T15:31:05.987Z,17.60
2023-06-13T15:33:36.380Z,17.58
2023-06-13T15:36:04.188Z,17.55
2023-06-13T15:38:31.915Z,17.51
2023-06-13T15:40:59.999Z,17.46
2023-06-13T15:43:28.166Z,17.40
2023-06-13T15:45:55.907Z,17.34
2023-06-13T15:48:24.099Z,17.28
2023-06-13T15:50:52.683Z,17.27
2023-06-13T15:53:21.812Z,17.32
2023-06-13T15:55:51.191Z,17.37
2023-06-13T15:58:23.143Z,17.44
2023-06-13T16:00:50.338Z,17.52
2023-06-13T16:03:17.462Z,17.62
2023-06-13T16:05:45.503Z,17.69
2023-06-13T16:08:12.916Z,17.74
2023-06-13T16:10:40.123Z,17.76
2023-06-13T16:13:08.505Z,17.76
2023-06-13T16:15:36.246Z,17.76
2023-06-13T16:18:04.415Z,17.78
2023-06-13T16:20:32.723Z,17.74
2023-06-13T16:23:00.487Z,17.67
2023-06-13T16:25:33.336Z,17.59
2023-06-13T16:28:01.256Z,17.50
2023-06-13T16:30:31.296Z,17.40
2023-06-13T16:32:58.539Z,17.33
2023-06-13T16:35:26.050Z,17.32
2023-06-13T16:37:53.784Z,17.35
2023-06-13T16:40:21.614Z,17.33
2023-06-13T16:42:48.998Z,17.30
2023-06-13T16:45:16.349Z,17.27
2023-06-13T16:47:44.241Z,17.23
2023-06-13T16:50:11.487Z,17.18
2023-06-13T16:52:38.570Z,17.13
2023-06-13T16:55:09.002Z,17.04
2023-06-13T16:57:35.985Z,16.97
2023-06-13T17:00:04.939Z,16.93
2023-06-13T17:02:32.689Z,16.90
2023-06-13T17:05:07.387Z,16.90
2023-06-13T17:07:35.329Z,16.86
2023-06-13T17:10:02.659Z,16.81
2023-06-13T17:12:31.769Z,16.77
2023-06-13T17:14:59.422Z,16.73
2023-06-13T17:17:30.312Z,16.69
2023-06-13T17:20:00.993Z,16.65
2023-06-13T17:22:28.673Z,16.62
2023-06-13T17:24:56.481Z,16.58
2023-06-13T17:27:25.911Z,16.57
2023-06-13T17:29:58.294Z,16.59
2023-06-13T17:32:27.603Z,16.60
2023-06-13T17:34:54.890Z,16.60
2023-06-13T17:37:24.787Z,16.57
2023-06-13T17:39:55.223Z,16.54
2023-06-13T17:42:27.783Z,16.49
2023-06-13T17:44:55.741Z,16.48
2023-06-13T17:47:22.736Z,16.43
2023-06-13T17:49:50.853Z,16.43
2023-06-13T17:52:18.837Z,16.45
2023-06-13T17:54:53.557Z,16.46
2023-06-13T17:57:20.706Z,16.43
2023-06-13T17:59:47.807Z,16.41
2023-06-13T18:02:16.232Z,16.41
2023-06-13T18:04:44.757Z,16.39
2023-06-13T18:07:12.377Z,16.38
2023-06-13T18:09:40.349Z,16.37
2023-06-13T18:12:20.818Z,16.37
2023-06-13T18:14:50.239Z,16.38
2023-06-13T18:17:17.374Z,16.40
2023-06-13T18:19:45.874Z,16.40
2023-06-13T18:22:13.722Z,16.37
2023-06-13T18:24:44.267Z,16.37
2023-06-13T18:27:12.981Z,16.37
2023-06-13T18:29:40.911Z,16.36
2023-06-13T18:32:09.085Z,16.33
2023-06-13T18:34:36.172Z,16.30
2023-06-13T18:37:04.098Z,16.30
2023-06-13T18:39:32.122Z,16.32
2023-06-13T18:42:00.762Z,16.34
2023-06-13T18:44:28.946Z,16.33
2023-06-13T18:46:56.112Z,16.30
2023-06-13T18:49:26.918Z,16.28
2023-06-13T18:51:54.281Z,16.25
2023-06-13T18:54:21.327Z,16.21
2023-06-13T18:56:48.722Z,16.22
2023-06-13T18:59:19.006Z,16.24
2023-06-13T19:01:49.331Z,16.26
2023-06-13T19:04:17.094Z,16.26
2023-06-13T19:06:45.268Z,16.26
2023-06-13T19:09:16.720Z,16.22
2023-06-13T19:11:44.284Z,16.17
2023-06-13T19:14:14.708Z,16.15
2023-06-13T19:16:42.379Z,16.16
2023-06-13T19:19:09.839Z,16.20
2023-06-13T19:21:37.805Z,16.24
2023-06-13T19:24:05.941Z,16.23
2023-06-13T19:26:34.965Z,16.21
2023-06-13T19:29:05.283Z,16.20
2023-06-13T19:31:34.388Z,16.17
2023-06-13T19:34:02.367Z,16.12
2023-06-13T19:36:29.786Z,16.11
2023-06-13T19:38:57.222Z,16.14
2023-06-13T19:41:24.618Z,16.14
2023-06-13T19:43:52.009Z,16.14
2023-06-13T19:46:20.458Z,16.13
2023-06-13T19:48:48.834Z,16.10
2023-06-13T19:51:19.307Z,16.09
2023-06-13T19:53:47.542Z,16.07
2023-06-13T19:56:17.286Z,16.05
2023-06-13T19:58:46.468Z,16.08
2023-06-13T20:01:13.408Z,16.09
2023-06-13T20:03:41.040Z,16.08
2023-06-13T20:06:10.389Z,16.09
2023-06-13T20:08:38.432Z,16.08
2023-06-13T20:11:06.407Z,16.07
2023-06-13T20:13:33.964Z,16.07
2023-06-13T20:16:01.547Z,16.08
2023-06-13T20:18:30.057Z,16.11
2023-06-13T20:20:57.059Z,16.14
2023-06-13T20:23:26.454Z,16.17
2023-06-13T20:27:47.470Z,16.17
2023-06-13T20:30:15.952Z,16.07
2023-06-13T20:32:43.891Z,16.04
2023-06-13T20:35:11.892Z,16.05
2023-06-13T20:37:40.153Z,16.04
2023-06-13T20:40:10.898Z,15.98
2023-06-13T20:42:41.956Z,16.00
2023-06-13T20:45:10.553Z,15.99
2023-06-13T20:47:39.330Z,15.99
2023-06-13T20:50:09.558Z,16.01
2023-06-13T20:52:38.102Z,16.07
2023-06-13T20:55:09.453Z,16.11
2023-06-13T20:57:38.659Z,16.12
2023-06-13T21:00:24.136Z,16.11
2023-06-13T21:02:54.204Z,16.11
2023-06-13T21:05:25.130Z,16.08
2023-06-13T21:07:53.417Z,16.07
2023-06-13T21:10:21.782Z,16.09
2023-06-13T21:12:50.677Z,16.14
2023-06-13T21:15:19.567Z,16.14
2023-06-13T21:17:48.884Z,16.13
2023-06-13T21:20:19.153Z,16.11
2023-06-13T21:22:47.054Z,16.04
2023-06-13T21:25:21.699Z,15.98
2023-06-13T21:27:50.057Z,15.92
2023-06-13T21:30:20.636Z,15.87
2023-06-13T21:32:49.400Z,15.82
2023-06-13T21:35:19.242Z,15.76
2023-06-13T21:37:47.042Z,15.68
2023-06-13T21:40:17.381Z,15.65
2023-06-13T21:42:47.391Z,15.66
2023-06-13T21:45:30.168Z,15.69
2023-06-13T21:48:01.898Z,15.68
2023-06-13T21:50:29.856Z,15.67
2023-06-13T21:52:58.182Z,15.64
2023-06-13T21:55:29.718Z,15.58
2023-06-13T21:57:57.487Z,15.48
2023-06-13T22:00:25.418Z,15.42
2023-06-13T22:02:56.252Z,15.40
2023-06-13T22:05:24.217Z,15.35
2023-06-13T22:07:52.053Z,15.25
2023-06-13T22:10:23.995Z,15.12
2023-06-13T22:12:55.032Z,14.97
2023-06-13T22:15:22.809Z,14.80
2023-06-13T22:17:55.262Z,14.63
2023-06-13T22:20:27.746Z,14.48
2023-06-13T22:22:56.649Z,14.34
2023-06-13T22:25:25.208Z,14.23
2023-06-13T22:27:55.619Z,14.09
2023-06-13T22:30:24.826Z,13.92
2023-06-13T22:32:54.796Z,13.77
2023-06-13T22:35:30.609Z,13.64
2023-06-13T22:38:03.172Z,13.55
2023-06-13T22:40:31.446Z,13.44
2023-06-13T22:42:59.293Z,13.32
2023-06-13T22:45:29.936Z,13.20
2023-06-13T22:47:59.334Z,13.12
2023-06-13T22:50:27.222Z,13.06
2023-06-13T22:52:55.703Z,13.04
2023-06-13T22:55:24.212Z,13.05
2023-06-13T22:57:52.566Z,13.10
2023-06-13T23:00:22.074Z,13.08
2023-06-13T23:02:53.360Z,13.05
2023-06-13T23:05:22.778Z,13.05
2023-06-13T23:07:50.955Z,13.11
2023-06-13T23:10:20.296Z,13.16
2023-06-13T23:12:48.087Z,13.18
2023-06-13T23:15:15.721Z,13.15
2023-06-13T23:17:46.152Z,13.09
2023-06-13T23:20:17.957Z,13.05
2023-06-13T23:22:46.278Z,13.06
2023-06-13T23:25:19.689Z,13.03
2023-06-13T23:27:48.904Z,13.03
2023-06-13T23:30:17.297Z,13.01
2023-06-13T23:32:47.402Z,12.95
2023-06-13T23:35:15.823Z,12.91
2023-06-13T23:37:45.831Z,12.92
2023-06-13T23:40:16.793Z,12.89
2023-06-13T23:42:46.492Z,12.81
2023-06-13T23:45:14.221Z,12.72
2023-06-13T23:47:42.925Z,12.62
2023-06-13T23:50:11.414Z,12.57
2023-06-13T23:52:39.380Z,12.55
2023-06-13T23:55:11.111Z,12.51
2023-06-13T23:57:40.656Z,12.45
